Moran, Minnesota
Current Conditions -  °F | °C
As of 5:13 AM on Friday 28 Nov 2014 (Local Time) from KSAZ Reporting Station
Light Snow Light Snow  
Wind Chill:   Ceiling: 2000
Heat Index:   Visibility: 4mi
Dew Point:   Wind: 3mph
Humidity: 85%   Direction: 140°SE
Pressure: 30.01"   Gusts: NA
Location:  46.4416°N, 94.6389°W
Report Text: KSAZ 281113Z AUTO 14003KT 4SM -SN SCT013 BKN020 OVC060 M14/M16 A3001 RMK AO2
Loading
Personal Weather Stations






























Interactive Weather Map New forecast layout! Learn more

10-Day Weather Forecast

Advertisements
Track Severe Weather on mobile